sensor_id;sensor_type;location;lat;lon;timestamp;pressure;altitude;pressure_sealevel;temperature;humidity
61814;BME280;73144;-35.164;149.098;2024-02-16T00:01:18;94826.22;;;16.06;78.64
61814;BME280;73144;-35.164;149.098;2024-02-16T00:03:47;94822.27;;;15.98;78.47
61814;BME280;73144;-35.164;149.098;2024-02-16T00:06:16;94818.71;;;16.18;78.73
61814;BME280;73144;-35.164;149.098;2024-02-16T00:08:45;94820.12;;;16.25;78.88
61814;BME280;73144;-35.164;149.098;2024-02-16T00:11:14;94822.52;;;16.07;78.13
61814;BME280;73144;-35.164;149.098;2024-02-16T00:13:43;94824.92;;;16.20;77.91
61814;BME280;73144;-35.164;149.098;2024-02-16T00:16:11;94820.74;;;16.55;78.77
61814;BME280;73144;-35.164;149.098;2024-02-16T00:18:40;94816.26;;;16.59;78.58
61814;BME280;73144;-35.164;149.098;2024-02-16T00:21:08;94818.42;;;16.37;78.85
61814;BME280;73144;-35.164;149.098;2024-02-16T00:23:37;94813.15;;;16.45;78.21
61814;BME280;73144;-35.164;149.098;2024-02-16T00:26:06;94816.34;;;16.33;78.23
61814;BME280;73144;-35.164;149.098;2024-02-16T00:28:35;94813.94;;;16.29;78.28
61814;BME280;73144;-35.164;149.098;2024-02-16T00:31:03;94811.50;;;16.59;78.28
61814;BME280;73144;-35.164;149.098;2024-02-16T00:33:33;94803.26;;;16.64;78.26
61814;BME280;73144;-35.164;149.098;2024-02-16T00:36:01;94802.40;;;16.55;78.07
61814;BME280;73144;-35.164;149.098;2024-02-16T00:38:31;94803.03;;;16.85;78.16
61814;BME280;73144;-35.164;149.098;2024-02-16T00:40:59;94801.98;;;16.74;78.27
61814;BME280;73144;-35.164;149.098;2024-02-16T00:43:28;94796.94;;;16.77;78.22
61814;BME280;73144;-35.164;149.098;2024-02-16T00:45:56;94790.79;;;16.83;77.27
61814;BME280;73144;-35.164;149.098;2024-02-16T00:48:25;94787.64;;;16.94;77.40
61814;BME280;73144;-35.164;149.098;2024-02-16T00:50:54;94786.56;;;17.05;76.68
61814;BME280;73144;-35.164;149.098;2024-02-16T00:53:23;94785.63;;;17.15;77.12
61814;BME280;73144;-35.164;149.098;2024-02-16T00:55:51;94783.70;;;17.14;77.13
61814;BME280;73144;-35.164;149.098;2024-02-16T00:58:20;94783.40;;;16.99;77.44
61814;BME280;73144;-35.164;149.098;2024-02-16T01:00:48;94779.29;;;17.24;76.56
61814;BME280;73144;-35.164;149.098;2024-02-16T01:03:17;94776.96;;;17.25;76.79
61814;BME280;73144;-35.164;149.098;2024-02-16T01:05:46;94777.25;;;17.08;76.88
61814;BME280;73144;-35.164;149.098;2024-02-16T01:08:15;94773.03;;;17.40;77.19
61814;BME280;73144;-35.164;149.098;2024-02-16T01:10:43;94767.00;;;17.22;76.98
61814;BME280;73144;-35.164;149.098;2024-02-16T01:13:12;94764.26;;;17.45;77.06
61814;BME280;73144;-35.164;149.098;2024-02-16T01:15:41;94760.85;;;17.59;76.01
61814;BME280;73144;-35.164;149.098;2024-02-16T01:18:09;94752.24;;;17.99;75.68
61814;BME280;73144;-35.164;149.098;2024-02-16T01:20:38;94744.88;;;17.73;76.94
61814;BME280;73144;-35.164;149.098;2024-02-16T01:23:07;94743.58;;;17.84;76.17
61814;BME280;73144;-35.164;149.098;2024-02-16T01:25:37;94746.06;;;18.09;74.48
61814;BME280;73144;-35.164;149.098;2024-02-16T01:28:06;94746.58;;;18.02;74.30
61814;BME280;73144;-35.164;149.098;2024-02-16T01:30:35;94745.47;;;18.02;74.35
61814;BME280;73144;-35.164;149.098;2024-02-16T01:33:03;94741.80;;;18.20;73.87
61814;BME280;73144;-35.164;149.098;2024-02-16T01:35:32;94739.64;;;18.22;74.53
61814;BME280;73144;-35.164;149.098;2024-02-16T01:38:02;94740.99;;;18.36;74.78
61814;BME280;73144;-35.164;149.098;2024-02-16T01:40:31;94740.29;;;18.51;73.56
61814;BME280;73144;-35.164;149.098;2024-02-16T01:43:01;94735.66;;;18.45;73.56
61814;BME280;73144;-35.164;149.098;2024-02-16T01:45:30;94726.53;;;18.44;73.39
61814;BME280;73144;-35.164;149.098;2024-02-16T01:47:59;94727.81;;;18.50;73.37
61814;BME280;73144;-35.164;149.098;2024-02-16T01:50:28;94724.77;;;18.63;73.42
61814;BME280;73144;-35.164;149.098;2024-02-16T01:52:57;94721.55;;;18.82;73.77
61814;BME280;73144;-35.164;149.098;2024-02-16T01:55:27;94720.80;;;18.33;73.55
61814;BME280;73144;-35.164;149.098;2024-02-16T01:57:56;94720.74;;;18.75;72.68
61814;BME280;73144;-35.164;149.098;2024-02-16T02:00:26;94715.25;;;18.79;73.14
61814;BME280;73144;-35.164;149.098;2024-02-16T02:02:55;94711.70;;;18.80;73.15
61814;BME280;73144;-35.164;149.098;2024-02-16T02:05:25;94709.50;;;18.91;72.64
61814;BME280;73144;-35.164;149.098;2024-02-16T02:07:54;94707.30;;;19.04;72.76
61814;BME280;73144;-35.164;149.098;2024-02-16T02:10:23;94703.62;;;19.08;72.36
61814;BME280;73144;-35.164;149.098;2024-02-16T02:12:53;94702.05;;;19.09;72.42
61814;BME280;73144;-35.164;149.098;2024-02-16T02:15:21;94695.79;;;18.88;72.13
61814;BME280;73144;-35.164;149.098;2024-02-16T02:17:50;94693.60;;;19.43;72.24
61814;BME280;73144;-35.164;149.098;2024-02-16T02:20:19;94689.23;;;18.83;71.33
61814;BME280;73144;-35.164;149.098;2024-02-16T02:22:48;94686.08;;;19.16;71.79
61814;BME280;73144;-35.164;149.098;2024-02-16T02:25:18;94684.99;;;19.10;71.86
61814;BME280;73144;-35.164;149.098;2024-02-16T02:27:47;94685.19;;;19.27;71.31
61814;BME280;73144;-35.164;149.098;2024-02-16T02:30:16;94684.03;;;19.28;71.08
61814;BME280;73144;-35.164;149.098;2024-02-16T02:32:46;94685.15;;;18.85;71.74
61814;BME280;73144;-35.164;149.098;2024-02-16T02:35:16;94686.50;;;18.93;72.31
61814;BME280;73144;-35.164;149.098;2024-02-16T02:37:45;94684.78;;;19.35;72.07
61814;BME280;73144;-35.164;149.098;2024-02-16T02:40:15;94679.22;;;18.89;72.37
61814;BME280;73144;-35.164;149.098;2024-02-16T02:42:44;94677.92;;;19.06;72.28
61814;BME280;73144;-35.164;149.098;2024-02-16T02:45:13;94678.20;;;18.98;72.89
61814;BME280;73144;-35.164;149.098;2024-02-16T02:47:42;94675.81;;;19.03;73.11
61814;BME280;73144;-35.164;149.098;2024-02-16T02:50:11;94676.27;;;19.15;72.21
61814;BME280;73144;-35.164;149.098;2024-02-16T02:52:40;94677.79;;;19.09;72.32
61814;BME280;73144;-35.164;149.098;2024-02-16T02:55:10;94676.89;;;19.03;72.41
61814;BME280;73144;-35.164;149.098;2024-02-16T02:57:39;94666.73;;;19.07;72.41
61814;BME280;73144;-35.164;149.098;2024-02-16T03:00:09;94666.72;;;18.84;72.35
61814;BME280;73144;-35.164;149.098;2024-02-16T03:02:38;94664.62;;;19.14;71.69
61814;BME280;73144;-35.164;149.098;2024-02-16T03:05:08;94662.34;;;18.86;72.14
61814;BME280;73144;-35.164;149.098;2024-02-16T03:07:37;94656.59;;;19.42;72.10
61814;BME280;73144;-35.164;149.098;2024-02-16T03:10:08;94652.66;;;18.96;71.79
61814;BME280;73144;-35.164;149.098;2024-02-16T03:12:37;94647.20;;;19.13;71.09
61814;BME280;73144;-35.164;149.098;2024-02-16T03:15:07;94636.93;;;19.21;71.38
61814;BME280;73144;-35.164;149.098;2024-02-16T03:17:36;94631.90;;;19.33;72.51
61814;BME280;73144;-35.164;149.098;2024-02-16T03:20:07;94620.57;;;19.63;71.91
61814;BME280;73144;-35.164;149.098;2024-02-16T03:22:36;94617.95;;;19.75;70.62
61814;BME280;73144;-35.164;149.098;2024-02-16T03:25:05;94613.78;;;19.85;70.10
61814;BME280;73144;-35.164;149.098;2024-02-16T03:27:34;94612.58;;;20.08;69.34
61814;BME280;73144;-35.164;149.098;2024-02-16T03:30:04;94606.32;;;20.01;68.50
61814;BME280;73144;-35.164;149.098;2024-02-16T03:32:33;94603.00;;;19.81;69.66
61814;BME280;73144;-35.164;149.098;2024-02-16T03:35:03;94600.97;;;19.89;69.73
61814;BME280;73144;-35.164;149.098;2024-02-16T03:37:32;94598.85;;;19.85;69.37
61814;BME280;73144;-35.164;149.098;2024-02-16T03:40:00;94593.00;;;19.89;69.59
61814;BME280;73144;-35.164;149.098;2024-02-16T03:42:30;94588.92;;;19.89;69.13
61814;BME280;73144;-35.164;149.098;2024-02-16T03:44:59;94586.57;;;19.86;70.32
61814;BME280;73144;-35.164;149.098;2024-02-16T03:47:28;94584.54;;;19.53;70.41
61814;BME280;73144;-35.164;149.098;2024-02-16T03:49:57;94584.27;;;19.83;69.42
61814;BME280;73144;-35.164;149.098;2024-02-16T03:52:27;94581.00;;;20.06;69.61
61814;BME280;73144;-35.164;149.098;2024-02-16T03:54:56;94580.92;;;19.79;69.40
61814;BME280;73144;-35.164;149.098;2024-02-16T03:57:26;94577.74;;;20.02;68.74
61814;BME280;73144;-35.164;149.098;2024-02-16T03:59:55;94574.27;;;19.96;68.63
61814;BME280;73144;-35.164;149.098;2024-02-16T04:02:24;94571.49;;;20.04;69.89
61814;BME280;73144;-35.164;149.098;2024-02-16T04:04:53;94568.84;;;19.66;69.10
61814;BME280;73144;-35.164;149.098;2024-02-16T04:07:23;94560.55;;;20.18;68.54
61814;BME280;73144;-35.164;149.098;2024-02-16T04:09:52;94557.86;;;20.33;68.99
61814;BME280;73144;-35.164;149.098;2024-02-16T04:12:21;94550.81;;;20.44;68.81
61814;BME280;73144;-35.164;149.098;2024-02-16T04:14:50;94552.81;;;20.56;68.49
61814;BME280;73144;-35.164;149.098;2024-02-16T04:17:19;94549.15;;;20.15;67.70
61814;BME280;73144;-35.164;149.098;2024-02-16T04:19:49;94538.65;;;20.01;68.31
61814;BME280;73144;-35.164;149.098;2024-02-16T04:22:18;94535.49;;;20.26;67.88
61814;BME280;73144;-35.164;149.098;2024-02-16T04:24:47;94537.70;;;19.97;67.56
61814;BME280;73144;-35.164;149.098;2024-02-16T04:27:16;94533.68;;;20.03;67.00
61814;BME280;73144;-35.164;149.098;2024-02-16T04:29:46;94526.40;;;20.06;66.89
61814;BME280;73144;-35.164;149.098;2024-02-16T04:32:15;94520.11;;;20.69;68.68
61814;BME280;73144;-35.164;149.098;2024-02-16T04:34:45;94512.52;;;20.09;67.70
61814;BME280;73144;-35.164;149.098;2024-02-16T04:37:14;94513.94;;;20.64;66.81
61814;BME280;73144;-35.164;149.098;2024-02-16T04:39:43;94514.97;;;20.83;65.53
61814;BME280;73144;-35.164;149.098;2024-02-16T04:42:12;94508.47;;;20.94;65.32
61814;BME280;73144;-35.164;149.098;2024-02-16T04:44:42;94505.05;;;21.15;65.07
61814;BME280;73144;-35.164;149.098;2024-02-16T04:47:11;94502.23;;;21.17;64.90
61814;BME280;73144;-35.164;149.098;2024-02-16T04:49:40;94499.42;;;21.19;64.48
61814;BME280;73144;-35.164;149.098;2024-02-16T04:52:10;94500.63;;;21.31;63.50
61814;BME280;73144;-35.164;149.098;2024-02-16T04:54:39;94500.13;;;21.53;62.25
61814;BME280;73144;-35.164;149.098;2024-02-16T04:57:08;94495.84;;;21.62;62.56
61814;BME280;73144;-35.164;149.098;2024-02-16T04:59:37;94499.43;;;21.92;62.00
61814;BME280;73144;-35.164;149.098;2024-02-16T05:02:07;94492.89;;;21.77;62.27
61814;BME280;73144;-35.164;149.098;2024-02-16T05:04:36;94492.18;;;21.65;62.44
61814;BME280;73144;-35.164;149.098;2024-02-16T05:07:06;94492.40;;;21.53;62.61
61814;BME280;73144;-35.164;149.098;2024-02-16T05:09:35;94491.91;;;21.53;62.38
61814;BME280;73144;-35.164;149.098;2024-02-16T05:12:04;94495.83;;;21.39;62.81
61814;BME280;73144;-35.164;149.098;2024-02-16T05:14:33;94495.48;;;21.46;62.95
61814;BME280;73144;-35.164;149.098;2024-02-16T05:17:03;94499.14;;;21.26;62.66
61814;BME280;73144;-35.164;149.098;2024-02-16T05:19:34;94496.58;;;21.58;62.71
61814;BME280;73144;-35.164;149.098;2024-02-16T05:22:03;94497.38;;;21.23;63.62
61814;BME280;73144;-35.164;149.098;2024-02-16T05:24:32;94497.87;;;21.20;63.26
61814;BME280;73144;-35.164;149.098;2024-02-16T05:27:01;94494.81;;;21.33;63.10
61814;BME280;73144;-35.164;149.098;2024-02-16T05:29:31;94493.91;;;21.19;64.40
61814;BME280;73144;-35.164;149.098;2024-02-16T05:32:00;94495.26;;;21.13;64.20
61814;BME280;73144;-35.164;149.098;2024-02-16T05:34:29;94495.00;;;21.47;63.58
61814;BME280;73144;-35.164;149.098;2024-02-16T05:36:59;94494.55;;;21.69;63.09
61814;BME280;73144;-35.164;149.098;2024-02-16T05:39:28;94492.05;;;21.76;63.48
61814;BME280;73144;-35.164;149.098;2024-02-16T05:41:57;94491.82;;;21.65;62.66
61814;BME280;73144;-35.164;149.098;2024-02-16T05:44:26;94492.06;;;21.75;62.23
61814;BME280;73144;-35.164;149.098;2024-02-16T05:46:56;94489.54;;;21.80;62.18
61814;BME280;73144;-35.164;149.098;2024-02-16T05:49:25;94488.04;;;21.73;63.83
61814;BME280;73144;-35.164;149.098;2024-02-16T05:51:54;94488.84;;;21.85;62.38
61814;BME280;73144;-35.164;149.098;2024-02-16T05:54:24;94486.85;;;21.73;63.13
61814;BME280;73144;-35.164;149.098;2024-02-16T05:56:53;94479.66;;;21.87;63.48
61814;BME280;73144;-35.164;149.098;2024-02-16T05:59:22;94484.18;;;22.03;63.17
61814;BME280;73144;-35.164;149.098;2024-02-16T06:01:51;94486.59;;;22.17;62.32
61814;BME280;73144;-35.164;149.098;2024-02-16T06:04:21;94485.14;;;21.83;61.83
61814;BME280;73144;-35.164;149.098;2024-02-16T06:06:50;94478.90;;;22.08;62.14
61814;BME280;73144;-35.164;149.098;2024-02-16T06:09:19;94479.26;;;22.17;62.93
61814;BME280;73144;-35.164;149.098;2024-02-16T06:11:49;94475.48;;;22.30;61.14
61814;BME280;73144;-35.164;149.098;2024-02-16T06:14:18;94472.06;;;22.08;62.21
61814;BME280;73144;-35.164;149.098;2024-02-16T06:16:47;94473.41;;;22.33;61.45
61814;BME280;73144;-35.164;149.098;2024-02-16T06:19:16;94473.93;;;22.10;60.52
61814;BME280;73144;-35.164;149.098;2024-02-16T06:21:46;94467.00;;;22.32;60.52
61814;BME280;73144;-35.164;149.098;2024-02-16T06:24:15;94472.16;;;22.28;61.72
61814;BME280;73144;-35.164;149.098;2024-02-16T06:26:44;94477.27;;;22.23;61.75
61814;BME280;73144;-35.164;149.098;2024-02-16T06:29:13;94481.28;;;22.37;60.60
61814;BME280;73144;-35.164;149.098;2024-02-16T06:31:43;94483.89;;;22.41;60.49
61814;BME280;73144;-35.164;149.098;2024-02-16T06:34:12;94483.44;;;22.44;59.94
61814;BME280;73144;-35.164;149.098;2024-02-16T06:36:41;94482.79;;;22.34;59.86
61814;BME280;73144;-35.164;149.098;2024-02-16T06:39:12;94481.57;;;22.63;60.86
61814;BME280;73144;-35.164;149.098;2024-02-16T06:41:41;94485.35;;;22.51;60.25
61814;BME280;73144;-35.164;149.098;2024-02-16T06:44:11;94484.81;;;22.73;60.41
61814;BME280;73144;-35.164;149.098;2024-02-16T06:46:39;94479.02;;;22.57;60.59
61814;BME280;73144;-35.164;149.098;2024-02-16T06:49:09;94480.69;;;22.45;60.83
61814;BME280;73144;-35.164;149.098;2024-02-16T06:51:38;94483.14;;;22.32;60.55
61814;BME280;73144;-35.164;149.098;2024-02-16T06:54:07;94489.88;;;22.21;60.82
61814;BME280;73144;-35.164;149.098;2024-02-16T06:56:37;94499.99;;;22.02;61.01
61814;BME280;73144;-35.164;149.098;2024-02-16T06:59:06;94507.41;;;21.88;61.29
61814;BME280;73144;-35.164;149.098;2024-02-16T07:01:36;94513.76;;;21.81;61.21
61814;BME280;73144;-35.164;149.098;2024-02-16T07:04:05;94518.78;;;21.94;61.33
61814;BME280;73144;-35.164;149.098;2024-02-16T07:06:35;94521.65;;;22.04;61.29
61814;BME280;73144;-35.164;149.098;2024-02-16T07:09:04;94525.86;;;21.75;60.75
61814;BME280;73144;-35.164;149.098;2024-02-16T07:11:33;94525.24;;;22.10;60.48
61814;BME280;73144;-35.164;149.098;2024-02-16T07:14:02;94521.57;;;22.16;60.51
61814;BME280;73144;-35.164;149.098;2024-02-16T07:16:32;94520.87;;;22.30;60.10
61814;BME280;73144;-35.164;149.098;2024-02-16T07:19:01;94526.24;;;21.99;60.30
61814;BME280;73144;-35.164;149.098;2024-02-16T07:21:30;94527.45;;;22.27;60.09
61814;BME280;73144;-35.164;149.098;2024-02-16T07:23:59;94537.25;;;21.91;60.47
61814;BME280;73144;-35.164;149.098;2024-02-16T07:26:29;94539.17;;;21.76;61.16
61814;BME280;73144;-35.164;149.098;2024-02-16T07:28:58;94545.21;;;21.90;61.06
61814;BME280;73144;-35.164;149.098;2024-02-16T07:31:32;94547.15;;;21.62;61.68
61814;BME280;73144;-35.164;149.098;2024-02-16T07:34:02;94550.51;;;21.58;61.64
61814;BME280;73144;-35.164;149.098;2024-02-16T07:36:31;94541.54;;;21.68;61.93
61814;BME280;73144;-35.164;149.098;2024-02-16T07:39:02;94542.45;;;21.86;62.14
61814;BME280;73144;-35.164;149.098;2024-02-16T07:41:31;94545.74;;;21.30;62.68
61814;BME280;73144;-35.164;149.098;2024-02-16T07:44:01;94542.95;;;21.49;62.52
61814;BME280;73144;-35.164;149.098;2024-02-16T07:46:30;94539.38;;;21.15;63.03
61814;BME280;73144;-35.164;149.098;2024-02-16T07:48:59;94535.05;;;21.55;63.62
61814;BME280;73144;-35.164;149.098;2024-02-16T07:51:29;94533.32;;;21.48;63.83
61814;BME280;73144;-35.164;149.098;2024-02-16T07:53:58;94533.85;;;21.14;63.91
61814;BME280;73144;-35.164;149.098;2024-02-16T07:56:27;94532.74;;;21.08;64.62
61814;BME280;73144;-35.164;149.098;2024-02-16T07:58:56;94530.60;;;21.27;64.95
61814;BME280;73144;-35.164;149.098;2024-02-16T08:01:26;94527.41;;;20.97;65.24
61814;BME280;73144;-35.164;149.098;2024-02-16T08:03:55;94521.95;;;21.17;65.09
61814;BME280;73144;-35.164;149.098;2024-02-16T08:06:26;94522.87;;;21.26;65.38
61814;BME280;73144;-35.164;149.098;2024-02-16T08:08:55;94525.28;;;21.15;64.77
61814;BME280;73144;-35.164;149.098;2024-02-16T08:11:25;94525.09;;;21.40;64.93
61814;BME280;73144;-35.164;149.098;2024-02-16T08:13:54;94523.18;;;21.13;64.62
61814;BME280;73144;-35.164;149.098;2024-02-16T08:16:23;94524.84;;;21.11;64.90
61814;BME280;73144;-35.164;149.098;2024-02-16T08:18:53;94525.17;;;21.09;65.10
61814;BME280;73144;-35.164;149.098;2024-02-16T08:21:22;94530.80;;;21.08;65.17
61814;BME280;73144;-35.164;149.098;2024-02-16T08:23:51;94531.03;;;21.02;65.37
61814;BME280;73144;-35.164;149.098;2024-02-16T08:26:21;94531.78;;;20.92;65.59
61814;BME280;73144;-35.164;149.098;2024-02-16T08:28:50;94537.90;;;21.15;65.84
61814;BME280;73144;-35.164;149.098;2024-02-16T08:31:19;94544.70;;;20.82;66.14
61814;BME280;73144;-35.164;149.098;2024-02-16T08:33:48;94543.08;;;20.95;66.48
61814;BME280;73144;-35.164;149.098;2024-02-16T08:36:18;94540.05;;;20.60;66.35
61814;BME280;73144;-35.164;149.098;2024-02-16T08:38:47;94540.41;;;20.51;66.53
61814;BME280;73144;-35.164;149.098;2024-02-16T08:41:17;94543.16;;;20.71;66.63
61814;BME280;73144;-35.164;149.098;2024-02-16T08:43:46;94545.39;;;20.61;66.78
61814;BME280;73144;-35.164;149.098;2024-02-16T08:46:15;94543.99;;;20.56;66.57
61814;BME280;73144;-35.164;149.098;2024-02-16T08:48:45;94541.26;;;20.67;66.83
61814;BME280;73144;-35.164;149.098;2024-02-16T08:51:15;94541.63;;;20.13;66.77
61814;BME280;73144;-35.164;149.098;2024-02-16T08:53:44;94544.79;;;20.35;66.92
61814;BME280;73144;-35.164;149.098;2024-02-16T08:56:13;94545.56;;;20.30;66.90
61814;BME280;73144;-35.164;149.098;2024-02-16T08:58:42;94548.28;;;20.28;66.96
61814;BME280;73144;-35.164;149.098;2024-02-16T09:01:11;94548.31;;;20.30;66.91
61814;BME280;73144;-35.164;149.098;2024-02-16T09:03:41;94554.06;;;20.29;66.88
61814;BME280;73144;-35.164;149.098;2024-02-16T09:06:10;94559.56;;;19.91;67.28
61814;BME280;73144;-35.164;149.098;2024-02-16T09:08:39;94557.56;;;20.28;67.68
61814;BME280;73144;-35.164;149.098;2024-02-16T09:11:09;94561.60;;;20.20;67.94
61814;BME280;73144;-35.164;149.098;2024-02-16T09:13:40;94563.44;;;19.88;68.06
61814;BME280;73144;-35.164;149.098;2024-02-16T09:16:09;94569.46;;;19.84;68.33
61814;BME280;73144;-35.164;149.098;2024-02-16T09:18:38;94575.58;;;19.99;68.47
61814;BME280;73144;-35.164;149.098;2024-02-16T09:21:08;94584.40;;;19.94;68.54
61814;BME280;73144;-35.164;149.098;2024-02-16T09:23:37;94596.04;;;19.90;68.75
61814;BME280;73144;-35.164;149.098;2024-02-16T09:26:07;94607.01;;;20.06;68.89
61814;BME280;73144;-35.164;149.098;2024-02-16T09:28:39;94612.05;;;19.55;69.20
61814;BME280;73144;-35.164;149.098;2024-02-16T09:31:08;94618.83;;;19.95;69.41
61814;BME280;73144;-35.164;149.098;2024-02-16T09:33:38;94623.64;;;19.69;69.39
61814;BME280;73144;-35.164;149.098;2024-02-16T09:36:07;94630.50;;;19.85;69.61
61814;BME280;73144;-35.164;149.098;2024-02-16T09:38:36;94634.75;;;19.83;69.73
61814;BME280;73144;-35.164;149.098;2024-02-16T09:41:05;94637.46;;;19.34;69.85
61814;BME280;73144;-35.164;149.098;2024-02-16T09:43:33;94639.64;;;19.76;69.80
61814;BME280;73144;-35.164;149.098;2024-02-16T09:46:03;94644.63;;;19.51;69.77
61814;BME280;73144;-35.164;149.098;2024-02-16T09:48:32;94651.32;;;19.73;69.85
61814;BME280;73144;-35.164;149.098;2024-02-16T09:51:01;94649.96;;;19.67;70.03
61814;BME280;73144;-35.164;149.098;2024-02-16T09:53:30;94652.74;;;19.85;70.36
61814;BME280;73144;-35.164;149.098;2024-02-16T09:55:59;94659.28;;;19.58;70.51
61814;BME280;73144;-35.164;149.098;2024-02-16T09:58:29;94666.08;;;19.56;70.67
61814;BME280;73144;-35.164;149.098;2024-02-16T10:00:58;94669.80;;;19.50;70.89
61814;BME280;73144;-35.164;149.098;2024-02-16T10:03:29;94678.83;;;19.44;71.03
61814;BME280;73144;-35.164;149.098;2024-02-16T10:06:14;94684.42;;;19.43;71.10
61814;BME280;73144;-35.164;149.098;2024-02-16T10:08:50;94692.14;;;19.19;70.99
61814;BME280;73144;-35.164;149.098;2024-02-16T10:11:21;94699.39;;;19.65;71.06
61814;BME280;73144;-35.164;149.098;2024-02-16T10:13:59;94702.93;;;19.36;71.11
61814;BME280;73144;-35.164;149.098;2024-02-16T10:16:29;94710.88;;;19.35;71.08
61814;BME280;73144;-35.164;149.098;2024-02-16T10:19:05;94720.82;;;19.31;71.13
61814;BME280;73144;-35.164;149.098;2024-02-16T10:21:34;94725.17;;;19.32;71.22
61814;BME280;73144;-35.164;149.098;2024-02-16T10:24:05;94731.46;;;19.30;71.26
61814;BME280;73144;-35.164;149.098;2024-02-16T10:26:35;94735.97;;;19.10;71.13
61814;BME280;73144;-35.164;149.098;2024-02-16T10:29:05;94752.70;;;19.33;71.00
61814;BME280;73144;-35.164;149.098;2024-02-16T10:31:34;94756.65;;;19.34;71.01
61814;BME280;73144;-35.164;149.098;2024-02-16T10:34:04;94760.49;;;19.31;70.91
61814;BME280;73144;-35.164;149.098;2024-02-16T10:36:35;94761.01;;;19.28;70.45
61814;BME280;73144;-35.164;149.098;2024-02-16T10:39:05;94763.35;;;19.26;70.41
61814;BME280;73144;-35.164;149.098;2024-02-16T10:41:36;94764.38;;;19.31;70.10
61814;BME280;73144;-35.164;149.098;2024-02-16T10:44:05;94763.79;;;19.26;70.21
61814;BME280;73144;-35.164;149.098;2024-02-16T10:46:34;94762.06;;;19.26;70.39
61814;BME280;73144;-35.164;149.098;2024-02-16T10:49:04;94760.73;;;19.23;70.67
61814;BME280;73144;-35.164;149.098;2024-02-16T10:51:36;94758.20;;;19.27;70.31
61814;BME280;73144;-35.164;149.098;2024-02-16T10:54:06;94756.30;;;19.26;70.36
61814;BME280;73144;-35.164;149.098;2024-02-16T10:56:37;94760.19;;;19.25;70.39
61814;BME280;73144;-35.164;149.098;2024-02-16T10:59:09;94757.57;;;19.22;70.52
61814;BME280;73144;-35.164;149.098;2024-02-16T11:01:39;94749.18;;;19.21;70.46
61814;BME280;73144;-35.164;149.098;2024-02-16T11:04:11;94754.35;;;19.16;70.65
61814;BME280;73144;-35.164;149.098;2024-02-16T11:06:48;94757.48;;;19.16;70.69
61814;BME280;73144;-35.164;149.098;2024-02-16T11:09:28;94762.92;;;19.13;70.63
61814;BME280;73144;-35.164;149.098;2024-02-16T11:12:01;94762.68;;;19.10;70.88
61814;BME280;73144;-35.164;149.098;2024-02-16T11:14:38;94761.95;;;19.34;70.83
61814;BME280;73144;-35.164;149.098;2024-02-16T11:17:11;94761.56;;;19.07;70.70
61814;BME280;73144;-35.164;149.098;2024-02-16T11:19:42;94757.21;;;19.29;70.89
61814;BME280;73144;-35.164;149.098;2024-02-16T11:22:14;94756.69;;;19.23;70.98
61814;BME280;73144;-35.164;149.098;2024-02-16T11:24:45;94753.84;;;18.96;70.94
61814;BME280;73144;-35.164;149.098;2024-02-16T11:27:15;94753.12;;;18.93;71.09
61814;BME280;73144;-35.164;149.098;2024-02-16T11:29:45;94752.88;;;19.14;71.10
61814;BME280;73144;-35.164;149.098;2024-02-16T11:32:15;94753.77;;;18.84;71.14
61814;BME280;73144;-35.164;149.098;2024-02-16T11:34:44;94749.74;;;19.04;71.42
61814;BME280;73144;-35.164;149.098;2024-02-16T11:37:14;94747.88;;;19.00;71.53
61814;BME280;73144;-35.164;149.098;2024-02-16T11:39:42;94748.80;;;18.99;71.51
61814;BME280;73144;-35.164;149.098;2024-02-16T11:42:13;94752.16;;;18.91;68.10
61814;BME280;73144;-35.164;149.098;2024-02-16T11:44:52;94750.58;;;18.83;67.44
61814;BME280;73144;-35.164;149.098;2024-02-16T11:47:23;94746.17;;;18.53;66.14
61814;BME280;73144;-35.164;149.098;2024-02-16T11:50:02;94742.79;;;18.48;65.50
61814;BME280;73144;-35.164;149.098;2024-02-16T11:52:31;94738.17;;;18.43;65.49
61814;BME280;73144;-35.164;149.098;2024-02-16T11:55:00;94739.90;;;18.67;65.25
61814;BME280;73144;-35.164;149.098;2024-02-16T11:57:29;94740.28;;;18.65;64.87
61814;BME280;73144;-35.164;149.098;2024-02-16T11:59:59;94740.70;;;18.62;64.81
61814;BME280;73144;-35.164;149.098;2024-02-16T12:02:29;94738.44;;;18.55;64.42
61814;BME280;73144;-35.164;149.098;2024-02-16T12:05:00;94741.31;;;18.51;64.27
61814;BME280;73144;-35.164;149.098;2024-02-16T12:07:29;94739.74;;;18.70;64.57
61814;BME280;73144;-35.164;149.098;2024-02-16T12:09:58;94732.93;;;18.64;64.65
61814;BME280;73144;-35.164;149.098;2024-02-16T12:12:28;94734.43;;;18.50;65.08
61814;BME280;73144;-35.164;149.098;2024-02-16T12:14:57;94732.66;;;18.23;65.08
61814;BME280;73144;-35.164;149.098;2024-02-16T12:17:27;94725.91;;;18.38;65.39
61814;BME280;73144;-35.164;149.098;2024-02-16T12:19:56;94722.12;;;18.11;65.47
61814;BME280;73144;-35.164;149.098;2024-02-16T12:22:26;94726.55;;;18.05;65.69
61814;BME280;73144;-35.164;149.098;2024-02-16T12:24:55;94728.20;;;18.20;65.92
61814;BME280;73144;-35.164;149.098;2024-02-16T12:27:23;94731.34;;;17.92;66.23
61814;BME280;73144;-35.164;149.098;2024-02-16T12:29:52;94732.10;;;18.07;66.31
61814;BME280;73144;-35.164;149.098;2024-02-16T12:32:20;94729.70;;;18.01;66.47
61814;BME280;73144;-35.164;149.098;2024-02-16T12:34:50;94725.88;;;17.90;66.59
61814;BME280;73144;-35.164;149.098;2024-02-16T12:37:19;94727.77;;;17.92;66.68
61814;BME280;73144;-35.164;149.098;2024-02-16T12:39:48;94729.85;;;17.86;66.81
61814;BME280;73144;-35.164;149.098;2024-02-16T12:42:17;94730.60;;;17.88;66.83